createdAt,value
2023-02-11T00:00:30.041Z,44.53
2023-02-11T00:02:33.169Z,47.37
2023-02-11T00:04:35.219Z,43.20
2023-02-11T00:06:36.898Z,41.20
2023-02-11T00:08:39.408Z,47.53
2023-02-11T00:10:40.948Z,50.47
2023-02-11T00:12:43.255Z,47.20
2023-02-11T00:14:44.923Z,50.73
2023-02-11T00:16:46.671Z,52.50
2023-02-11T00:18:49.003Z,49.83
2023-02-11T00:20:50.611Z,49.67
2023-02-11T00:22:53.088Z,52.50
2023-02-11T00:24:54.868Z,53.83
2023-02-11T00:26:56.427Z,50.60
2023-02-11T00:28:59.212Z,46.63
2023-02-11T00:31:03.330Z,48.50
2023-02-11T00:33:04.995Z,47.23
2023-02-11T00:35:07.542Z,46.93
2023-02-11T00:37:09.193Z,45.20
2023-02-11T00:39:11.671Z,47.60
2023-02-11T00:41:19.555Z,51.43
2023-02-11T00:43:21.207Z,47.87
2023-02-11T00:45:25.130Z,51.70
2023-02-11T00:47:26.660Z,47.80
2023-02-11T00:49:31.365Z,51.13
2023-02-11T00:51:33.205Z,55.63
2023-02-11T00:53:35.863Z,47.90
2023-02-11T00:55:37.449Z,49.67
2023-02-11T00:57:42.178Z,55.70
2023-02-11T00:59:43.924Z,64.60
2023-02-11T01:01:48.343Z,59.80
2023-02-11T01:03:50.435Z,63.80
2023-02-11T01:05:52.536Z,56.33
2023-02-11T01:07:54.271Z,53.40
2023-02-11T01:09:57.067Z,52.07
2023-02-11T01:11:58.839Z,50.43
2023-02-11T01:14:01.031Z,48.27
2023-02-11T01:16:04.044Z,52.60
2023-02-11T01:18:06.187Z,49.17
2023-02-11T01:20:13.880Z,45.53
2023-02-11T01:22:15.420Z,47.40
2023-02-11T01:24:16.994Z,46.83
2023-02-11T01:26:19.191Z,46.13
2023-02-11T01:28:24.813Z,44.80
2023-02-11T01:30:27.004Z,48.90
2023-02-11T01:32:28.776Z,49.60
2023-02-11T01:34:30.290Z,44.57
2023-02-11T01:36:31.888Z,49.97
2023-02-11T01:38:35.780Z,45.00
2023-02-11T01:40:37.840Z,46.07
2023-02-11T01:42:39.501Z,50.23
2023-02-11T01:44:41.027Z,45.30
2023-02-11T01:46:43.904Z,46.90
2023-02-11T01:48:50.450Z,44.40
2023-02-11T01:50:57.256Z,48.93
2023-02-11T01:53:18.987Z,52.73
2023-02-11T01:55:39.953Z,46.23
2023-02-11T01:57:45.148Z,49.37
2023-02-11T02:00:08.902Z,48.63
2023-02-11T02:02:21.402Z,44.23
2023-02-11T02:04:27.371Z,47.93
2023-02-11T02:06:40.911Z,46.43
2023-02-11T02:09:01.889Z,44.60
2023-02-11T02:11:04.897Z,48.77
2023-02-11T02:13:06.509Z,45.60
2023-02-11T02:15:18.086Z,45.73
2023-02-11T02:17:38.434Z,42.87
2023-02-11T02:20:16.535Z,43.53
2023-02-11T02:22:43.603Z,43.27
2023-02-11T02:25:23.026Z,45.37
2023-02-11T02:27:49.556Z,45.00
2023-02-11T02:30:09.197Z,39.97
2023-02-11T02:32:22.505Z,39.17
2023-02-11T02:34:36.572Z,46.20
2023-02-11T02:36:47.876Z,42.63
2023-02-11T02:38:55.154Z,43.53
2023-02-11T02:41:09.750Z,44.53
2023-02-11T02:43:12.715Z,43.53
2023-02-11T02:45:15.012Z,43.13
2023-02-11T02:47:25.235Z,41.83
2023-02-11T02:49:26.790Z,41.90
2023-02-11T02:52:06.245Z,44.17
2023-02-11T02:54:35.955Z,43.30
2023-02-11T02:56:49.696Z,41.20
2023-02-11T02:59:10.960Z,40.87
2023-02-11T03:01:34.408Z,41.23
2023-02-11T03:03:46.671Z,43.83
2023-02-11T03:06:03.450Z,41.63
2023-02-11T03:08:16.801Z,38.83
2023-02-11T03:10:35.653Z,45.40
2023-02-11T03:12:38.602Z,40.20
2023-02-11T03:14:41.956Z,38.77
2023-02-11T03:16:45.521Z,40.93
2023-02-11T03:18:59.320Z,42.60
2023-02-11T03:21:05.639Z,40.27
2023-02-11T03:23:30.821Z,36.30
2023-02-11T03:25:38.165Z,41.87
2023-02-11T03:27:47.112Z,41.10
2023-02-11T03:29:59.019Z,41.77
2023-02-11T03:32:16.260Z,40.27
2023-02-11T03:34:45.247Z,38.37
2023-02-11T03:36:56.108Z,39.07
2023-02-11T03:39:00.261Z,36.80
2023-02-11T03:41:05.280Z,38.77
2023-02-11T03:43:17.295Z,40.83
2023-02-11T03:45:26.540Z,40.07
2023-02-11T03:47:35.233Z,37.93
2023-02-11T03:49:39.798Z,37.77
2023-02-11T03:51:41.821Z,36.57
2023-02-11T03:53:46.433Z,40.30
2023-02-11T03:55:51.774Z,39.63
2023-02-11T03:57:53.758Z,41.63
2023-02-11T03:59:58.231Z,37.70
2023-02-11T04:01:59.799Z,39.83
2023-02-11T04:04:10.237Z,35.43
2023-02-11T04:06:11.906Z,37.03
2023-02-11T04:08:13.420Z,38.87
2023-02-11T04:10:15.301Z,34.67
2023-02-11T04:12:16.892Z,39.33
2023-02-11T04:14:20.885Z,36.63
2023-02-11T04:16:28.604Z,35.03
2023-02-11T04:18:30.158Z,41.60
2023-02-11T04:20:31.707Z,37.87
2023-02-11T04:22:33.248Z,36.50
2023-02-11T04:24:35.279Z,37.40
2023-02-11T04:26:36.894Z,36.70
2023-02-11T04:28:38.467Z,34.33
2023-02-11T04:30:41.242Z,36.23
2023-02-11T04:32:42.933Z,34.63
2023-02-11T04:34:44.643Z,33.20
2023-02-11T04:36:49.204Z,34.17
2023-02-11T04:38:50.789Z,33.10
2023-02-11T04:40:52.442Z,32.20
2023-02-11T04:42:54.142Z,33.60
2023-02-11T04:44:58.080Z,28.50
2023-02-11T04:46:59.774Z,30.23
2023-02-11T04:49:01.328Z,27.40
2023-02-11T04:51:03.194Z,29.97
2023-02-11T04:53:04.696Z,29.23
2023-02-11T04:55:06.793Z,26.50
2023-02-11T04:57:08.408Z,27.87
2023-02-11T04:59:09.987Z,27.47
2023-02-11T05:01:15.107Z,27.17
2023-02-11T05:03:17.333Z,27.13
2023-02-11T05:05:19.018Z,30.27
2023-02-11T05:07:20.674Z,28.73
2023-02-11T05:09:22.818Z,34.33
2023-02-11T05:11:26.062Z,30.67
2023-02-11T05:13:29.134Z,32.43
2023-02-11T05:15:37.019Z,33.13
2023-02-11T05:17:38.637Z,32.47
2023-02-11T05:19:41.688Z,32.07
2023-02-11T05:21:56.642Z,29.53
2023-02-11T05:24:06.634Z,29.43
2023-02-11T05:26:08.906Z,28.87
2023-02-11T05:28:10.447Z,29.60
2023-02-11T05:30:12.314Z,27.77
2023-02-11T05:32:14.707Z,28.10
2023-02-11T05:34:16.241Z,26.23
2023-02-11T05:36:17.994Z,25.33
2023-02-11T05:38:19.762Z,23.73
2023-02-11T05:40:21.415Z,24.47
2023-02-11T05:42:23.037Z,23.20
2023-02-11T05:44:25.703Z,23.73
2023-02-11T05:46:27.403Z,21.07
2023-02-11T05:48:28.932Z,22.67
2023-02-11T05:50:33.673Z,21.67
2023-02-11T05:52:35.169Z,19.43
2023-02-11T05:54:36.926Z,20.30
2023-02-11T05:56:38.605Z,21.13
2023-02-11T05:58:40.356Z,19.37
2023-02-11T06:00:42.111Z,17.90
2023-02-11T06:02:46.678Z,19.97
2023-02-11T06:04:48.201Z,20.77
2023-02-11T06:06:49.945Z,21.53
2023-02-11T06:08:51.541Z,21.73
2023-02-11T06:10:53.226Z,19.40
2023-02-11T06:12:54.889Z,20.27
2023-02-11T06:14:56.433Z,22.73
2023-02-11T06:16:58.100Z,20.43
2023-02-11T06:19:08.659Z,20.87
2023-02-11T06:21:16.664Z,20.90
2023-02-11T06:23:18.387Z,22.73
2023-02-11T06:25:20.052Z,20.67
2023-02-11T06:27:21.733Z,22.53
2023-02-11T06:29:23.416Z,19.07
2023-02-11T06:31:25.047Z,20.83
2023-02-11T06:33:26.613Z,22.33
2023-02-11T06:35:28.492Z,23.50
2023-02-11T06:37:30.254Z,24.57
2023-02-11T06:39:32.232Z,25.80
2023-02-11T06:41:36.050Z,31.13
2023-02-11T06:43:37.617Z,29.40
2023-02-11T06:45:41.165Z,31.10
2023-02-11T06:47:43.018Z,30.97
2023-02-11T06:49:51.788Z,27.83
2023-02-11T06:51:54.158Z,30.40
2023-02-11T06:53:55.826Z,34.10
2023-02-11T06:56:02.620Z,40.90
2023-02-11T06:58:04.323Z,45.23
2023-02-11T07:00:06.479Z,39.90
2023-02-11T07:02:10.153Z,43.30
2023-02-11T07:04:11.706Z,39.30
2023-02-11T07:06:16.589Z,38.53
2023-02-11T07:08:18.545Z,33.73
2023-02-11T07:10:20.426Z,35.30
2023-02-11T07:12:22.245Z,33.63
2023-02-11T07:14:34.310Z,29.97
2023-02-11T07:16:36.513Z,32.30
2023-02-11T07:18:38.449Z,30.67
2023-02-11T07:20:39.974Z,31.30
2023-02-11T07:22:41.624Z,29.77
2023-02-11T07:24:43.197Z,30.93
2023-02-11T07:26:44.932Z,28.03
2023-02-11T07:28:46.955Z,32.13
2023-02-11T07:30:48.643Z,29.33
2023-02-11T07:32:50.477Z,27.63
2023-02-11T07:34:52.158Z,28.33
2023-02-11T07:36:56.179Z,29.43
2023-02-11T07:38:58.631Z,28.50
2023-02-11T07:41:05.159Z,28.97
2023-02-11T07:43:06.874Z,27.60
2023-02-11T07:45:08.804Z,29.77
2023-02-11T07:47:13.842Z,28.20
2023-02-11T07:49:16.537Z,26.30
2023-02-11T07:51:26.964Z,32.40
2023-02-11T07:53:28.769Z,28.33
2023-02-11T07:55:30.407Z,30.87
2023-02-11T07:57:37.570Z,28.37
2023-02-11T07:59:39.091Z,29.77
2023-02-11T08:01:41.952Z,29.20
2023-02-11T08:03:43.710Z,29.33
2023-02-11T08:05:45.387Z,31.33
2023-02-11T08:07:47.258Z,29.83
2023-02-11T08:09:48.893Z,27.93
2023-02-11T08:11:50.548Z,30.47
2023-02-11T08:13:52.900Z,26.60
2023-02-11T08:15:57.822Z,27.37
2023-02-11T08:17:59.547Z,26.87
2023-02-11T08:20:04.781Z,26.60
2023-02-11T08:22:06.348Z,27.80
2023-02-11T08:24:09.080Z,27.33
2023-02-11T08:26:21.890Z,27.20
2023-02-11T08:28:23.867Z,24.47
2023-02-11T08:30:27.472Z,24.93
2023-02-11T08:32:29.107Z,28.27
2023-02-11T08:34:31.118Z,26.20
2023-02-11T08:36:36.667Z,22.97
2023-02-11T08:38:39.267Z,24.30
2023-02-11T08:40:42.096Z,24.07
2023-02-11T08:42:43.655Z,22.73
2023-02-11T08:44:47.533Z,19.70
2023-02-11T08:46:50.708Z,20.50
2023-02-11T08:48:54.966Z,19.53
2023-02-11T08:50:57.071Z,18.83
2023-02-11T08:53:01.224Z,18.83
2023-02-11T08:55:02.984Z,20.33
2023-02-11T08:57:05.509Z,19.17
2023-02-11T08:59:09.239Z,18.93
2023-02-11T09:01:22.322Z,17.80
2023-02-11T09:03:24.536Z,20.77
2023-02-11T09:05:27.570Z,22.73
2023-02-11T09:07:29.151Z,19.80
2023-02-11T09:09:30.750Z,17.10
2023-02-11T09:11:35.834Z,19.42
2023-02-11T09:13:37.837Z,18.73
2023-02-11T09:15:39.568Z,17.47
2023-02-11T09:17:41.088Z,16.13
2023-02-11T09:19:42.778Z,16.10
2023-02-11T09:21:44.461Z,15.00
2023-02-11T09:23:47.963Z,16.23
2023-02-11T09:25:49.749Z,16.33
2023-02-11T09:27:52.323Z,14.53
2023-02-11T09:29:54.060Z,17.10
2023-02-11T09:31:55.710Z,14.98
2023-02-11T09:34:02.005Z,14.35
2023-02-11T09:36:05.994Z,14.25
2023-02-11T09:38:07.612Z,13.25
2023-02-11T09:40:10.138Z,14.80
2023-02-11T09:42:41.055Z,14.45
2023-02-11T09:44:46.226Z,18.45
2023-02-11T09:46:54.838Z,16.63
2023-02-11T09:48:56.761Z,14.15
2023-02-11T09:51:03.389Z,14.20
2023-02-11T09:53:05.148Z,17.55
2023-02-11T09:55:18.809Z,16.73
2023-02-11T09:57:28.553Z,14.70
2023-02-11T09:59:30.761Z,15.45
2023-02-11T10:01:50.591Z,16.67
2023-02-11T10:04:13.787Z,13.30
2023-02-11T10:06:55.404Z,14.98
2023-02-11T10:09:08.587Z,15.63
2023-02-11T10:11:54.895Z,14.40
2023-02-11T10:14:05.586Z,14.07
2023-02-11T10:16:24.347Z,14.60
2023-02-11T10:18:53.830Z,16.08
2023-02-11T10:21:12.502Z,13.73
2023-02-11T10:23:22.412Z,13.50
2023-02-11T10:25:34.849Z,15.93
2023-02-11T10:27:36.308Z,16.73
2023-02-11T10:29:47.042Z,15.43
2023-02-11T10:31:53.380Z,15.65
2023-02-11T10:34:05.172Z,15.40
2023-02-11T10:36:14.377Z,17.33
2023-02-11T10:38:18.901Z,16.90
2023-02-11T10:40:25.926Z,19.20
2023-02-11T10:42:29.696Z,16.13
2023-02-11T10:44:41.592Z,18.00
2023-02-11T10:46:43.500Z,23.50
2023-02-11T10:48:58.765Z,24.20
2023-02-11T10:51:14.605Z,21.90
2023-02-11T10:53:20.672Z,22.08
2023-02-11T10:55:27.852Z,20.00
2023-02-11T10:57:38.843Z,18.80
2023-02-11T10:59:42.619Z,19.88
2023-02-11T11:01:53.380Z,18.80
2023-02-11T11:03:58.815Z,18.70
2023-02-11T11:06:09.204Z,16.63
2023-02-11T11:08:14.316Z,17.52
2023-02-11T11:10:34.430Z,20.67
2023-02-11T11:12:42.074Z,16.90
2023-02-11T11:14:54.850Z,16.15
2023-02-11T11:16:56.590Z,18.40
2023-02-11T11:19:07.727Z,18.92
2023-02-11T11:21:27.720Z,18.70
2023-02-11T11:23:30.895Z,17.27
2023-02-11T11:25:32.435Z,17.55
2023-02-11T11:27:34.189Z,17.75
2023-02-11T11:29:46.021Z,17.63
2023-02-11T11:32:03.137Z,18.27
2023-02-11T11:34:22.160Z,18.38
2023-02-11T11:36:34.225Z,16.25
2023-02-11T11:38:42.806Z,16.20
2023-02-11T11:40:44.558Z,15.05
2023-02-11T11:42:46.166Z,18.67
2023-02-11T11:45:19.635Z,14.05
2023-02-11T11:47:29.612Z,14.93
2023-02-11T11:49:38.782Z,15.18
2023-02-11T11:51:44.923Z,16.23
2023-02-11T11:53:57.131Z,15.90
2023-02-11T11:56:11.427Z,15.25
2023-02-11T11:58:22.640Z,18.40
2023-02-11T12:00:33.711Z,16.35
2023-02-11T12:03:17.163Z,17.58
2023-02-11T12:05:32.291Z,16.23
2023-02-11T12:08:26.683Z,16.35
2023-02-11T12:11:08.778Z,16.10
2023-02-11T12:13:23.304Z,18.88
2023-02-11T12:15:43.513Z,16.75
2023-02-11T12:17:56.501Z,18.08
2023-02-11T12:20:26.349Z,15.73
2023-02-11T12:23:15.064Z,15.80
2023-02-11T12:25:30.908Z,15.25
2023-02-11T12:27:57.230Z,17.73
2023-02-11T12:30:20.966Z,16.45
2023-02-11T12:32:47.116Z,16.10
2023-02-11T12:34:51.542Z,17.70
2023-02-11T12:37:02.563Z,15.77
2023-02-11T12:39:17.515Z,15.73
2023-02-11T12:42:08.683Z,16.58
2023-02-11T12:44:21.838Z,16.25
2023-02-11T12:46:29.166Z,16.48
2023-02-11T12:48:43.372Z,20.92
2023-02-11T12:51:14.597Z,17.58
2023-02-11T12:53:28.009Z,18.70
2023-02-11T12:55:42.576Z,19.25
2023-02-11T12:57:46.495Z,16.17
2023-02-11T13:00:04.972Z,16.88
2023-02-11T13:02:51.236Z,17.75
2023-02-11T13:04:57.324Z,16.98
2023-02-11T13:07:05.523Z,16.10
2023-02-11T13:09:18.817Z,17.73
2023-02-11T13:11:24.436Z,17.80
2023-02-11T13:13:31.819Z,16.95
2023-02-11T13:15:33.574Z,19.65
2023-02-11T13:17:43.931Z,17.73
2023-02-11T13:19:53.231Z,16.35
2023-02-11T13:22:21.133Z,18.30
2023-02-11T13:24:35.937Z,18.08
2023-02-11T13:26:49.955Z,15.43
2023-02-11T13:29:13.032Z,16.50
2023-02-11T13:31:16.686Z,15.70
2023-02-11T13:33:30.944Z,17.10
2023-02-11T13:35:33.518Z,16.15
2023-02-11T13:37:38.648Z,16.38
2023-02-11T13:39:40.397Z,15.95
2023-02-11T13:41:42.359Z,17.02
2023-02-11T13:43:44.402Z,17.25
2023-02-11T13:45:51.655Z,17.00
2023-02-11T13:48:03.958Z,18.40
2023-02-11T13:50:08.208Z,18.50
2023-02-11T13:52:39.847Z,17.95
2023-02-11T13:54:46.925Z,15.10
2023-02-11T13:57:20.048Z,19.67
2023-02-11T13:59:24.841Z,16.38
2023-02-11T14:02:44.057Z,16.85
2023-02-11T14:05:22.657Z,18.42
2023-02-11T14:07:51.901Z,18.20
2023-02-11T14:09:57.045Z,20.48
2023-02-11T14:12:33.038Z,16.23
2023-02-11T14:14:59.258Z,15.35
2023-02-11T14:17:09.505Z,17.67
2023-02-11T14:19:11.225Z,15.13
2023-02-11T14:21:23.178Z,16.10
2023-02-11T14:23:28.455Z,14.73
2023-02-11T14:25:30.237Z,16.73
2023-02-11T14:27:42.216Z,17.25
2023-02-11T14:29:58.754Z,16.65
2023-02-11T14:32:06.088Z,14.55
2023-02-11T14:34:45.035Z,16.67
2023-02-11T14:37:11.343Z,15.00
2023-02-11T14:39:18.791Z,16.48
2023-02-11T14:41:25.750Z,15.52
2023-02-11T14:43:40.537Z,17.25
2023-02-11T14:45:50.781Z,15.90
2023-02-11T14:48:03.582Z,16.38
2023-02-11T14:50:08.396Z,16.23
2023-02-11T14:52:24.388Z,16.67
2023-02-11T14:54:28.089Z,15.32
2023-02-11T14:56:36.795Z,17.83
2023-02-11T14:58:47.337Z,16.15
2023-02-11T15:00:57.116Z,17.17
2023-02-11T15:02:58.747Z,18.10
2023-02-11T15:05:17.454Z,15.10
2023-02-11T15:07:19.133Z,15.57
2023-02-11T15:09:42.432Z,16.45
2023-02-11T15:11:51.434Z,15.90
2023-02-11T15:13:55.434Z,15.60
2023-02-11T15:16:12.205Z,16.30
2023-02-11T15:18:26.845Z,15.35
2023-02-11T15:20:31.934Z,18.52
2023-02-11T15:22:36.844Z,16.75
2023-02-11T15:24:40.091Z,20.02
2023-02-11T15:26:41.744Z,16.80
2023-02-11T15:28:52.237Z,21.35
2023-02-11T15:31:03.327Z,15.38
2023-02-11T15:33:06.911Z,16.63
2023-02-11T15:35:11.804Z,16.42
2023-02-11T15:37:35.127Z,16.05
2023-02-11T15:39:41.998Z,16.70
2023-02-11T15:41:44.466Z,17.60
2023-02-11T15:43:54.243Z,14.55
2023-02-11T15:46:01.629Z,17.08
2023-02-11T15:48:21.736Z,18.42
2023-02-11T15:50:30.236Z,17.42
2023-02-11T15:52:32.231Z,16.58
2023-02-11T15:54:34.133Z,18.55
2023-02-11T15:56:43.262Z,17.85
2023-02-11T15:58:50.432Z,16.20
2023-02-11T16:00:59.865Z,19.25
2023-02-11T16:03:01.531Z,18.02
2023-02-11T16:05:09.660Z,17.88
2023-02-11T16:07:40.399Z,21.58
2023-02-11T16:09:43.005Z,19.98
2023-02-11T16:11:47.366Z,21.50
2023-02-11T16:13:49.246Z,20.10
2023-02-11T16:15:54.664Z,19.20
2023-02-11T16:17:56.807Z,20.90
2023-02-11T16:20:01.625Z,18.75
2023-02-11T16:22:10.384Z,18.95
2023-02-11T16:24:29.234Z,21.10
2023-02-11T16:26:57.750Z,22.15
2023-02-11T16:31:45.709Z,21.98
2023-02-11T16:34:35.742Z,20.45
2023-02-11T16:37:13.045Z,19.77
2023-02-11T16:40:03.150Z,20.02
2023-02-11T16:43:26.254Z,17.80
2023-02-11T16:45:31.165Z,21.80
2023-02-11T16:47:34.464Z,20.88
2023-02-11T16:49:38.305Z,21.30
2023-02-11T16:51:41.412Z,19.05
2023-02-11T16:53:43.174Z,22.13
2023-02-11T16:55:44.839Z,22.02
2023-02-11T16:57:46.542Z,21.58
2023-02-11T16:59:48.886Z,18.88
2023-02-11T17:01:52.980Z,19.60
2023-02-11T17:03:54.721Z,19.48
2023-02-11T17:05:56.273Z,21.08
2023-02-11T17:07:58.262Z,22.23
2023-02-11T17:10:00.434Z,19.45
2023-02-11T17:12:02.181Z,19.13
2023-02-11T17:14:03.788Z,18.83
2023-02-11T17:16:05.507Z,18.95
2023-02-11T17:18:06.962Z,21.25
2023-02-11T17:20:12.288Z,17.67
2023-02-11T17:22:13.903Z,18.65
2023-02-11T17:24:16.797Z,19.45
2023-02-11T17:26:21.375Z,18.52
2023-02-11T17:28:23.136Z,19.05
2023-02-11T17:30:27.847Z,21.02
2023-02-11T17:32:29.550Z,20.05
2023-02-11T17:34:32.358Z,18.30
2023-02-11T17:36:34.141Z,18.25
2023-02-11T17:38:37.252Z,19.83
2023-02-11T17:40:38.864Z,17.92
2023-02-11T17:42:40.501Z,18.83
2023-02-11T17:44:43.929Z,17.33
2023-02-11T17:46:45.748Z,18.15
2023-02-11T17:48:47.353Z,20.83
2023-02-11T17:50:49.230Z,18.95
2023-02-11T17:52:50.846Z,17.58
2023-02-11T17:54:52.617Z,19.25
2023-02-11T17:56:57.766Z,19.20
2023-02-11T17:59:02.268Z,24.73
2023-02-11T18:01:04.215Z,22.90
2023-02-11T18:03:05.777Z,25.83
2023-02-11T18:05:10.731Z,23.30
2023-02-11T18:07:12.424Z,24.40
2023-02-11T18:09:14.092Z,20.83
2023-02-11T18:11:16.464Z,24.40
2023-02-11T18:13:18.319Z,25.77
2023-02-11T18:15:20.103Z,25.50
2023-02-11T18:17:25.148Z,25.35
2023-02-11T18:19:30.550Z,24.17
2023-02-11T18:21:33.411Z,23.70
2023-02-11T18:23:35.417Z,23.10
2023-02-11T18:25:37.669Z,21.13
2023-02-11T18:27:39.497Z,21.42
2023-02-11T18:29:44.051Z,23.25
2023-02-11T18:31:45.727Z,18.58
2023-02-11T18:33:48.005Z,17.08
2023-02-11T18:35:52.840Z,17.45
2023-02-11T18:37:54.469Z,21.17
2023-02-11T18:39:56.153Z,17.02
2023-02-11T18:41:58.994Z,16.83
2023-02-11T18:44:02.875Z,17.60
2023-02-11T18:46:12.738Z,17.27
2023-02-11T18:48:21.917Z,17.13
2023-02-11T18:50:23.707Z,16.80
2023-02-11T18:52:25.343Z,18.25
2023-02-11T18:54:27.116Z,20.08
2023-02-11T18:56:28.924Z,19.15
2023-02-11T18:58:30.518Z,19.35
2023-02-11T19:00:32.366Z,23.10
2023-02-11T19:02:34.054Z,21.08
2023-02-11T19:04:38.529Z,22.38
2023-02-11T19:06:40.370Z,22.00
2023-02-11T19:08:42.361Z,22.83
2023-02-11T19:10:46.772Z,22.23
2023-02-11T19:12:48.590Z,18.35
2023-02-11T19:14:50.076Z,19.92
2023-02-11T19:16:54.802Z,17.10
2023-02-11T19:18:56.815Z,19.35
2023-02-11T19:21:01.856Z,17.38
2023-02-11T19:23:06.452Z,16.77
2023-02-11T19:25:08.247Z,18.25
2023-02-11T19:27:14.355Z,20.77
2023-02-11T19:29:16.832Z,18.20
2023-02-11T19:31:18.739Z,19.60
2023-02-11T19:33:20.462Z,18.88
2023-02-11T19:35:23.239Z,19.05
2023-02-11T19:37:24.976Z,21.25
2023-02-11T19:39:27.042Z,20.00
2023-02-11T19:41:29.638Z,16.63
2023-02-11T19:43:31.303Z,17.95
2023-02-11T19:45:33.092Z,17.73
2023-02-11T19:47:35.103Z,18.95
2023-02-11T19:49:36.833Z,18.75
2023-02-11T19:51:39.680Z,14.90
2023-02-11T19:53:42.346Z,17.35
2023-02-11T19:55:44.291Z,18.42
2023-02-11T19:57:45.856Z,20.13
2023-02-11T19:59:47.411Z,17.08
2023-02-11T20:01:49.255Z,18.88
2023-02-11T20:03:55.310Z,17.08
2023-02-11T20:05:57.082Z,15.57
2023-02-11T20:07:58.801Z,17.80
2023-02-11T20:10:00.561Z,18.45
2023-02-11T20:12:02.143Z,19.38
2023-02-11T20:14:05.118Z,19.13
2023-02-11T20:16:13.237Z,19.98
2023-02-11T20:18:14.915Z,22.67
2023-02-11T20:20:18.567Z,21.25
2023-02-11T20:22:20.185Z,22.05
2023-02-11T20:24:23.107Z,21.35
2023-02-11T20:26:31.016Z,21.05
2023-02-11T20:28:32.991Z,22.33
2023-02-11T20:30:34.648Z,20.02
2023-02-11T20:32:38.587Z,20.20
2023-02-11T20:34:40.382Z,23.13
2023-02-11T20:36:42.089Z,20.13
2023-02-11T20:38:44.712Z,21.15
2023-02-11T20:40:47.659Z,20.13
2023-02-11T20:42:49.900Z,20.17
2023-02-11T20:44:51.678Z,19.17
2023-02-11T20:46:54.338Z,19.75
2023-02-11T20:48:57.551Z,19.88
2023-02-11T20:51:06.716Z,21.00
2023-02-11T20:53:10.254Z,20.95
2023-02-11T20:55:14.646Z,22.35
2023-02-11T20:57:17.486Z,23.77
2023-02-11T20:59:21.207Z,24.35
2023-02-11T21:01:27.501Z,21.55
2023-02-11T21:03:29.371Z,23.67
2023-02-11T21:05:31.274Z,22.35
2023-02-11T21:07:33.094Z,22.65
2023-02-11T21:09:34.754Z,24.33
2023-02-11T21:11:39.583Z,22.92
2023-02-11T21:13:42.842Z,24.63
2023-02-11T21:15:44.459Z,24.50
2023-02-11T21:17:46.331Z,21.88
2023-02-11T21:19:47.878Z,24.30
2023-02-11T21:21:49.799Z,26.23
2023-02-11T21:23:51.269Z,24.40
2023-02-11T21:25:54.114Z,22.70
2023-02-11T21:27:56.058Z,27.23
2023-02-11T21:30:00.229Z,25.85
2023-02-11T21:32:01.971Z,23.40
2023-02-11T21:34:04.124Z,22.05
2023-02-11T21:36:07.934Z,22.83
2023-02-11T21:38:09.932Z,22.27
2023-02-11T21:40:11.787Z,23.42
2023-02-11T21:42:13.375Z,24.40
2023-02-11T21:44:14.944Z,24.10
2023-02-11T21:46:19.064Z,26.38
2023-02-11T21:48:21.033Z,26.35
2023-02-11T21:50:23.897Z,26.67
2023-02-11T21:52:25.655Z,23.60
2023-02-11T21:54:31.951Z,28.42
2023-02-11T21:56:36.734Z,24.45
2023-02-11T21:58:38.893Z,23.08
2023-02-11T22:00:40.555Z,22.58
2023-02-11T22:02:42.456Z,22.48
2023-02-11T22:04:44.133Z,24.95
2023-02-11T22:06:48.116Z,25.40
2023-02-11T22:08:50.263Z,21.45
2023-02-11T22:10:52.142Z,21.60
2023-02-11T22:12:53.829Z,21.95
2023-02-11T22:14:55.826Z,23.88
2023-02-11T22:16:57.495Z,22.38
2023-02-11T22:18:59.658Z,25.15
2023-02-11T22:21:10.511Z,24.27
2023-02-11T22:23:12.153Z,22.55
2023-02-11T22:25:13.812Z,23.30
2023-02-11T22:27:19.880Z,23.48
2023-02-11T22:29:21.774Z,23.48
2023-02-11T22:31:29.810Z,21.27
2023-02-11T22:33:31.548Z,21.00
2023-02-11T22:35:34.618Z,21.55
2023-02-11T22:37:42.294Z,22.65
2023-02-11T22:39:43.840Z,25.08
2023-02-11T22:41:46.858Z,20.60
2023-02-11T22:43:48.532Z,22.98
2023-02-11T22:45:50.791Z,22.80
2023-02-11T22:47:54.189Z,24.70
2023-02-11T22:49:55.872Z,21.77
2023-02-11T22:51:57.486Z,23.75
2023-02-11T22:54:04.956Z,21.95
2023-02-11T22:56:09.865Z,21.67
2023-02-11T22:58:11.518Z,22.25
2023-02-11T23:00:13.818Z,21.73
2023-02-11T23:02:15.647Z,22.75
2023-02-11T23:04:19.453Z,20.38
2023-02-11T23:06:21.245Z,29.02
2023-02-11T23:08:23.100Z,23.52
2023-02-11T23:10:24.720Z,23.63
2023-02-11T23:12:26.976Z,24.80
2023-02-11T23:14:28.658Z,23.02
2023-02-11T23:16:33.422Z,24.25
2023-02-11T23:18:37.127Z,23.17
2023-02-11T23:20:42.258Z,23.33
2023-02-11T23:22:44.036Z,22.10
2023-02-11T23:24:45.858Z,22.77
2023-02-11T23:26:47.425Z,23.88
2023-02-11T23:28:49.540Z,23.58
2023-02-11T23:30:54.756Z,25.42
2023-02-11T23:32:56.335Z,20.50
2023-02-11T23:34:58.281Z,24.27
2023-02-11T23:36:59.848Z,23.95
2023-02-11T23:39:01.554Z,24.15
2023-02-11T23:41:06.247Z,26.48
2023-02-11T23:43:07.790Z,26.05
2023-02-11T23:45:09.873Z,25.05
2023-02-11T23:47:11.523Z,24.25
2023-02-11T23:49:15.592Z,25.88
2023-02-11T23:51:17.462Z,26.50
2023-02-11T23:53:19.101Z,21.20
2023-02-11T23:55:20.723Z,20.17
2023-02-11T23:57:22.211Z,19.20
2023-02-11T23:59:23.802Z,22.15
